sensor_id;sensor_type;location;lat;lon;timestamp;P1;durP1;ratioP1;P2;durP2;ratioP2
16862;SDS011;52193;48.216;-1.698;2023-04-06T00:00:31;13.70;;;12.75;;
16862;SDS011;52193;48.216;-1.698;2023-04-06T00:03:00;12.40;;;11.65;;
16862;SDS011;52193;48.216;-1.698;2023-04-06T00:05:26;13.45;;;12.55;;
16862;SDS011;52193;48.216;-1.698;2023-04-06T00:07:55;15.07;;;14.07;;
16862;SDS011;52193;48.216;-1.698;2023-04-06T00:10:23;16.45;;;15.07;;
16862;SDS011;52193;48.216;-1.698;2023-04-06T00:12:50;16.88;;;15.57;;
16862;SDS011;52193;48.216;-1.698;2023-04-06T00:15:17;13.55;;;12.65;;
16862;SDS011;52193;48.216;-1.698;2023-04-06T00:17:44;15.13;;;14.02;;
16862;SDS011;52193;48.216;-1.698;2023-04-06T00:20:13;14.20;;;13.30;;
16862;SDS011;52193;48.216;-1.698;2023-04-06T00:22:40;15.88;;;14.68;;
16862;SDS011;52193;48.216;-1.698;2023-04-06T00:25:08;15.75;;;14.65;;
16862;SDS011;52193;48.216;-1.698;2023-04-06T00:27:36;14.63;;;13.63;;
16862;SDS011;52193;48.216;-1.698;2023-04-06T00:30:03;17.70;;;16.40;;
16862;SDS011;52193;48.216;-1.698;2023-04-06T00:32:30;16.67;;;15.48;;
16862;SDS011;52193;48.216;-1.698;2023-04-06T00:34:57;21.83;;;20.13;;
16862;SDS011;52193;48.216;-1.698;2023-04-06T00:37:26;19.67;;;18.08;;
16862;SDS011;52193;48.216;-1.698;2023-04-06T00:39:53;15.45;;;14.38;;
16862;SDS011;52193;48.216;-1.698;2023-04-06T00:42:20;16.95;;;15.63;;
16862;SDS011;52193;48.216;-1.698;2023-04-06T00:44:51;15.48;;;14.48;;
16862;SDS011;52193;48.216;-1.698;2023-04-06T00:47:19;18.73;;;17.33;;
16862;SDS011;52193;48.216;-1.698;2023-04-06T00:49:46;15.90;;;14.70;;
16862;SDS011;52193;48.216;-1.698;2023-04-06T00:52:13;15.73;;;14.63;;
16862;SDS011;52193;48.216;-1.698;2023-04-06T00:54:42;14.82;;;13.82;;
16862;SDS011;52193;48.216;-1.698;2023-04-06T00:57:10;14.75;;;13.75;;
16862;SDS011;52193;48.216;-1.698;2023-04-06T00:59:38;15.13;;;14.02;;
16862;SDS011;52193;48.216;-1.698;2023-04-06T01:02:05;14.55;;;13.38;;
16862;SDS011;52193;48.216;-1.698;2023-04-06T01:04:32;16.13;;;14.93;;
16862;SDS011;52193;48.216;-1.698;2023-04-06T01:07:00;14.18;;;13.27;;
16862;SDS011;52193;48.216;-1.698;2023-04-06T01:09:27;14.82;;;13.82;;
16862;SDS011;52193;48.216;-1.698;2023-04-06T01:11:56;13.70;;;12.80;;
16862;SDS011;52193;48.216;-1.698;2023-04-06T01:14:23;13.57;;;12.73;;
16862;SDS011;52193;48.216;-1.698;2023-04-06T01:16:51;17.10;;;15.90;;
16862;SDS011;52193;48.216;-1.698;2023-04-06T01:19:18;14.50;;;13.43;;
16862;SDS011;52193;48.216;-1.698;2023-04-06T01:21:46;15.02;;;14.02;;
16862;SDS011;52193;48.216;-1.698;2023-04-06T01:24:16;16.90;;;15.80;;
16862;SDS011;52193;48.216;-1.698;2023-04-06T01:26:44;27.88;;;25.52;;
16862;SDS011;52193;48.216;-1.698;2023-04-06T01:29:11;22.55;;;20.85;;
16862;SDS011;52193;48.216;-1.698;2023-04-06T01:31:38;23.08;;;21.33;;
16862;SDS011;52193;48.216;-1.698;2023-04-06T01:34:06;18.70;;;17.40;;
16862;SDS011;52193;48.216;-1.698;2023-04-06T01:36:33;20.98;;;19.42;;
16862;SDS011;52193;48.216;-1.698;2023-04-06T01:39:00;18.25;;;17.00;;
16862;SDS011;52193;48.216;-1.698;2023-04-06T01:41:28;19.67;;;18.08;;
16862;SDS011;52193;48.216;-1.698;2023-04-06T01:43:55;18.23;;;16.98;;
16862;SDS011;52193;48.216;-1.698;2023-04-06T01:46:22;15.65;;;14.65;;
16862;SDS011;52193;48.216;-1.698;2023-04-06T01:48:49;14.95;;;13.98;;
16862;SDS011;52193;48.216;-1.698;2023-04-06T01:51:17;17.83;;;16.58;;
16862;SDS011;52193;48.216;-1.698;2023-04-06T01:53:44;14.93;;;13.93;;
16862;SDS011;52193;48.216;-1.698;2023-04-06T01:56:11;15.43;;;14.38;;
16862;SDS011;52193;48.216;-1.698;2023-04-06T01:58:39;17.67;;;16.38;;
16862;SDS011;52193;48.216;-1.698;2023-04-06T02:01:06;17.50;;;16.30;;
16862;SDS011;52193;48.216;-1.698;2023-04-06T02:03:33;17.20;;;15.93;;
16862;SDS011;52193;48.216;-1.698;2023-04-06T02:06:00;17.77;;;16.58;;
16862;SDS011;52193;48.216;-1.698;2023-04-06T02:08:27;15.98;;;14.88;;
16862;SDS011;52193;48.216;-1.698;2023-04-06T02:10:54;16.38;;;15.27;;
16862;SDS011;52193;48.216;-1.698;2023-04-06T02:13:21;16.50;;;15.27;;
16862;SDS011;52193;48.216;-1.698;2023-04-06T02:15:49;15.07;;;14.07;;
16862;SDS011;52193;48.216;-1.698;2023-04-06T02:18:17;14.20;;;13.30;;
16862;SDS011;52193;48.216;-1.698;2023-04-06T02:20:44;15.63;;;14.63;;
16862;SDS011;52193;48.216;-1.698;2023-04-06T02:23:11;18.02;;;16.73;;
16862;SDS011;52193;48.216;-1.698;2023-04-06T02:25:38;17.77;;;16.58;;
16862;SDS011;52193;48.216;-1.698;2023-04-06T02:28:06;18.50;;;17.20;;
16862;SDS011;52193;48.216;-1.698;2023-04-06T02:30:33;16.23;;;15.13;;
16862;SDS011;52193;48.216;-1.698;2023-04-06T02:33:01;15.65;;;14.55;;
16862;SDS011;52193;48.216;-1.698;2023-04-06T02:35:28;12.27;;;11.45;;
16862;SDS011;52193;48.216;-1.698;2023-04-06T02:37:56;13.32;;;12.52;;
16862;SDS011;52193;48.216;-1.698;2023-04-06T02:40:23;14.05;;;13.05;;
16862;SDS011;52193;48.216;-1.698;2023-04-06T02:42:50;14.02;;;13.13;;
16862;SDS011;52193;48.216;-1.698;2023-04-06T02:45:17;16.00;;;14.90;;
16862;SDS011;52193;48.216;-1.698;2023-04-06T02:47:45;16.67;;;15.38;;
16862;SDS011;52193;48.216;-1.698;2023-04-06T02:50:13;15.98;;;14.77;;
16862;SDS011;52193;48.216;-1.698;2023-04-06T02:52:41;14.55;;;13.57;;
16862;SDS011;52193;48.216;-1.698;2023-04-06T02:55:08;13.52;;;12.43;;
16862;SDS011;52193;48.216;-1.698;2023-04-06T02:57:35;15.45;;;14.38;;
16862;SDS011;52193;48.216;-1.698;2023-04-06T03:00:02;13.85;;;12.85;;
16862;SDS011;52193;48.216;-1.698;2023-04-06T03:02:30;14.00;;;13.10;;
16862;SDS011;52193;48.216;-1.698;2023-04-06T03:04:57;12.82;;;11.93;;
16862;SDS011;52193;48.216;-1.698;2023-04-06T03:07:25;13.82;;;12.90;;
16862;SDS011;52193;48.216;-1.698;2023-04-06T03:09:52;13.20;;;12.18;;
16862;SDS011;52193;48.216;-1.698;2023-04-06T03:12:19;14.23;;;13.20;;
16862;SDS011;52193;48.216;-1.698;2023-04-06T03:14:46;13.85;;;12.98;;
16862;SDS011;52193;48.216;-1.698;2023-04-06T03:17:13;13.73;;;12.82;;
16862;SDS011;52193;48.216;-1.698;2023-04-06T03:19:40;13.30;;;12.50;;
16862;SDS011;52193;48.216;-1.698;2023-04-06T03:22:07;14.38;;;13.38;;
16862;SDS011;52193;48.216;-1.698;2023-04-06T03:24:36;12.38;;;11.50;;
16862;SDS011;52193;48.216;-1.698;2023-04-06T03:27:03;12.40;;;11.60;;
16862;SDS011;52193;48.216;-1.698;2023-04-06T03:29:31;11.50;;;10.70;;
16862;SDS011;52193;48.216;-1.698;2023-04-06T03:31:58;12.10;;;11.30;;
16862;SDS011;52193;48.216;-1.698;2023-04-06T03:34:25;11.25;;;10.55;;
16862;SDS011;52193;48.216;-1.698;2023-04-06T03:36:52;13.70;;;12.63;;
16862;SDS011;52193;48.216;-1.698;2023-04-06T03:39:19;12.60;;;11.75;;
16862;SDS011;52193;48.216;-1.698;2023-04-06T03:41:47;12.13;;;11.23;;
16862;SDS011;52193;48.216;-1.698;2023-04-06T03:44:14;11.65;;;10.85;;
16862;SDS011;52193;48.216;-1.698;2023-04-06T03:46:41;10.95;;;10.25;;
16862;SDS011;52193;48.216;-1.698;2023-04-06T03:49:08;9.75;;;9.07;;
16862;SDS011;52193;48.216;-1.698;2023-04-06T03:51:35;10.68;;;9.93;;
16862;SDS011;52193;48.216;-1.698;2023-04-06T03:54:03;10.43;;;9.57;;
16862;SDS011;52193;48.216;-1.698;2023-04-06T03:56:30;9.70;;;9.07;;
16862;SDS011;52193;48.216;-1.698;2023-04-06T03:58:58;8.63;;;8.13;;
16862;SDS011;52193;48.216;-1.698;2023-04-06T04:01:26;9.05;;;8.35;;
16862;SDS011;52193;48.216;-1.698;2023-04-06T04:03:53;8.77;;;8.10;;
16862;SDS011;52193;48.216;-1.698;2023-04-06T04:06:20;8.90;;;8.20;;
16862;SDS011;52193;48.216;-1.698;2023-04-06T04:08:47;8.23;;;7.72;;
16862;SDS011;52193;48.216;-1.698;2023-04-06T04:11:14;8.40;;;7.80;;
16862;SDS011;52193;48.216;-1.698;2023-04-06T04:13:41;6.50;;;6.03;;
16862;SDS011;52193;48.216;-1.698;2023-04-06T04:16:10;8.43;;;7.93;;
16862;SDS011;52193;48.216;-1.698;2023-04-06T04:18:37;7.80;;;7.30;;
16862;SDS011;52193;48.216;-1.698;2023-04-06T04:21:04;7.13;;;6.63;;
16862;SDS011;52193;48.216;-1.698;2023-04-06T04:23:31;7.97;;;7.38;;
16862;SDS011;52193;48.216;-1.698;2023-04-06T04:25:58;7.50;;;6.97;;
16862;SDS011;52193;48.216;-1.698;2023-04-06T04:28:25;7.82;;;7.22;;
16862;SDS011;52193;48.216;-1.698;2023-04-06T04:30:52;7.85;;;7.25;;
16862;SDS011;52193;48.216;-1.698;2023-04-06T04:33:20;8.05;;;7.35;;
16862;SDS011;52193;48.216;-1.698;2023-04-06T04:35:47;7.03;;;6.53;;
16862;SDS011;52193;48.216;-1.698;2023-04-06T04:38:14;7.72;;;7.22;;
16862;SDS011;52193;48.216;-1.698;2023-04-06T04:40:41;8.02;;;7.43;;
16862;SDS011;52193;48.216;-1.698;2023-04-06T04:43:08;7.22;;;6.63;;
16862;SDS011;52193;48.216;-1.698;2023-04-06T04:45:35;7.43;;;6.78;;
16862;SDS011;52193;48.216;-1.698;2023-04-06T04:48:02;7.18;;;6.68;;
16862;SDS011;52193;48.216;-1.698;2023-04-06T04:50:31;8.15;;;7.45;;
16862;SDS011;52193;48.216;-1.698;2023-04-06T04:52:58;7.50;;;6.90;;
16862;SDS011;52193;48.216;-1.698;2023-04-06T04:55:25;6.93;;;6.53;;
16862;SDS011;52193;48.216;-1.698;2023-04-06T04:57:52;6.32;;;5.93;;
16862;SDS011;52193;48.216;-1.698;2023-04-06T05:00:19;6.88;;;6.38;;
16862;SDS011;52193;48.216;-1.698;2023-04-06T05:02:46;7.22;;;6.55;;
16862;SDS011;52193;48.216;-1.698;2023-04-06T05:05:13;6.63;;;6.13;;
16862;SDS011;52193;48.216;-1.698;2023-04-06T05:07:42;5.80;;;5.43;;
16862;SDS011;52193;48.216;-1.698;2023-04-06T05:10:09;6.70;;;6.20;;
16862;SDS011;52193;48.216;-1.698;2023-04-06T05:12:36;6.80;;;6.40;;
16862;SDS011;52193;48.216;-1.698;2023-04-06T05:15:04;6.43;;;5.95;;
16862;SDS011;52193;48.216;-1.698;2023-04-06T05:17:31;6.57;;;6.18;;
16862;SDS011;52193;48.216;-1.698;2023-04-06T05:19:59;5.70;;;5.40;;
16862;SDS011;52193;48.216;-1.698;2023-04-06T05:22:27;7.03;;;6.40;;
16862;SDS011;52193;48.216;-1.698;2023-04-06T05:24:55;6.38;;;5.95;;
16862;SDS011;52193;48.216;-1.698;2023-04-06T05:27:22;5.80;;;5.50;;
16862;SDS011;52193;48.216;-1.698;2023-04-06T05:29:50;6.35;;;5.85;;
16862;SDS011;52193;48.216;-1.698;2023-04-06T05:32:17;6.68;;;6.18;;
16862;SDS011;52193;48.216;-1.698;2023-04-06T05:34:47;6.90;;;6.47;;
16862;SDS011;52193;48.216;-1.698;2023-04-06T05:37:14;7.60;;;7.00;;
16862;SDS011;52193;48.216;-1.698;2023-04-06T05:39:41;6.88;;;6.30;;
16862;SDS011;52193;48.216;-1.698;2023-04-06T05:42:09;6.50;;;6.10;;
16862;SDS011;52193;48.216;-1.698;2023-04-06T05:44:37;5.72;;;5.28;;
16862;SDS011;52193;48.216;-1.698;2023-04-06T05:47:04;6.40;;;6.00;;
16862;SDS011;52193;48.216;-1.698;2023-04-06T05:49:31;6.57;;;6.05;;
16862;SDS011;52193;48.216;-1.698;2023-04-06T05:51:58;6.22;;;5.82;;
16862;SDS011;52193;48.216;-1.698;2023-04-06T05:54:25;5.20;;;4.80;;
16862;SDS011;52193;48.216;-1.698;2023-04-06T05:56:52;5.68;;;5.28;;
16862;SDS011;52193;48.216;-1.698;2023-04-06T05:59:20;6.68;;;6.10;;
16862;SDS011;52193;48.216;-1.698;2023-04-06T06:01:48;6.72;;;6.32;;
16862;SDS011;52193;48.216;-1.698;2023-04-06T06:04:15;6.05;;;5.70;;
16862;SDS011;52193;48.216;-1.698;2023-04-06T06:06:42;6.53;;;6.03;;
16862;SDS011;52193;48.216;-1.698;2023-04-06T06:09:09;6.40;;;5.90;;
16862;SDS011;52193;48.216;-1.698;2023-04-06T06:11:36;6.18;;;5.70;;
16862;SDS011;52193;48.216;-1.698;2023-04-06T06:14:03;6.18;;;5.78;;
16862;SDS011;52193;48.216;-1.698;2023-04-06T06:16:32;6.97;;;6.30;;
16862;SDS011;52193;48.216;-1.698;2023-04-06T06:18:59;6.38;;;5.78;;
16862;SDS011;52193;48.216;-1.698;2023-04-06T06:21:26;6.30;;;5.80;;
16862;SDS011;52193;48.216;-1.698;2023-04-06T06:23:53;7.40;;;6.80;;
16862;SDS011;52193;48.216;-1.698;2023-04-06T06:26:20;7.13;;;6.63;;
16862;SDS011;52193;48.216;-1.698;2023-04-06T06:28:47;7.18;;;6.57;;
16862;SDS011;52193;48.216;-1.698;2023-04-06T06:31:13;7.13;;;6.63;;
16862;SDS011;52193;48.216;-1.698;2023-04-06T06:33:42;7.20;;;6.80;;
16862;SDS011;52193;48.216;-1.698;2023-04-06T06:36:09;7.70;;;7.15;;
16862;SDS011;52193;48.216;-1.698;2023-04-06T06:38:36;7.93;;;7.28;;
16862;SDS011;52193;48.216;-1.698;2023-04-06T06:41:04;6.93;;;6.53;;
16862;SDS011;52193;48.216;-1.698;2023-04-06T06:43:31;8.10;;;7.53;;
16862;SDS011;52193;48.216;-1.698;2023-04-06T06:45:58;8.63;;;8.02;;
16862;SDS011;52193;48.216;-1.698;2023-04-06T06:48:25;7.43;;;6.93;;
16862;SDS011;52193;48.216;-1.698;2023-04-06T06:50:53;6.72;;;6.22;;
16862;SDS011;52193;48.216;-1.698;2023-04-06T06:53:20;7.57;;;7.00;;
16862;SDS011;52193;48.216;-1.698;2023-04-06T06:55:47;6.95;;;6.45;;
16862;SDS011;52193;48.216;-1.698;2023-04-06T06:58:14;7.82;;;7.22;;
16862;SDS011;52193;48.216;-1.698;2023-04-06T07:00:43;6.20;;;5.85;;
16862;SDS011;52193;48.216;-1.698;2023-04-06T07:03:11;7.63;;;7.05;;
16862;SDS011;52193;48.216;-1.698;2023-04-06T07:05:38;8.98;;;8.48;;
16862;SDS011;52193;48.216;-1.698;2023-04-06T07:08:06;8.10;;;7.50;;
16862;SDS011;52193;48.216;-1.698;2023-04-06T07:10:33;7.75;;;7.25;;
16862;SDS011;52193;48.216;-1.698;2023-04-06T07:13:00;9.38;;;8.50;;
16862;SDS011;52193;48.216;-1.698;2023-04-06T07:15:28;9.13;;;8.40;;
16862;SDS011;52193;48.216;-1.698;2023-04-06T07:17:55;8.95;;;8.25;;
16862;SDS011;52193;48.216;-1.698;2023-04-06T07:20:22;8.65;;;8.05;;
16862;SDS011;52193;48.216;-1.698;2023-04-06T07:22:49;9.23;;;8.52;;
16862;SDS011;52193;48.216;-1.698;2023-04-06T07:25:17;9.30;;;8.70;;
16862;SDS011;52193;48.216;-1.698;2023-04-06T07:27:44;10.23;;;9.35;;
16862;SDS011;52193;48.216;-1.698;2023-04-06T07:30:11;8.57;;;7.97;;
16862;SDS011;52193;48.216;-1.698;2023-04-06T07:32:38;7.95;;;7.45;;
16862;SDS011;52193;48.216;-1.698;2023-04-06T07:35:05;9.35;;;8.65;;
16862;SDS011;52193;48.216;-1.698;2023-04-06T07:37:33;9.90;;;9.30;;
16862;SDS011;52193;48.216;-1.698;2023-04-06T07:40:00;10.07;;;9.48;;
16862;SDS011;52193;48.216;-1.698;2023-04-06T07:42:28;10.73;;;10.02;;
16862;SDS011;52193;48.216;-1.698;2023-04-06T07:44:55;12.07;;;11.35;;
16862;SDS011;52193;48.216;-1.698;2023-04-06T07:47:22;11.82;;;11.05;;
16862;SDS011;52193;48.216;-1.698;2023-04-06T07:49:49;11.38;;;10.68;;
16862;SDS011;52193;48.216;-1.698;2023-04-06T07:52:16;11.40;;;10.70;;
16862;SDS011;52193;48.216;-1.698;2023-04-06T07:54:43;11.25;;;10.55;;
16862;SDS011;52193;48.216;-1.698;2023-04-06T07:57:10;10.40;;;9.80;;
16862;SDS011;52193;48.216;-1.698;2023-04-06T07:59:39;10.95;;;10.32;;
16862;SDS011;52193;48.216;-1.698;2023-04-06T08:02:06;11.95;;;11.25;;
16862;SDS011;52193;48.216;-1.698;2023-04-06T08:04:33;10.02;;;9.52;;
16862;SDS011;52193;48.216;-1.698;2023-04-06T08:07:00;10.20;;;9.60;;
16862;SDS011;52193;48.216;-1.698;2023-04-06T08:09:27;10.60;;;10.00;;
16862;SDS011;52193;48.216;-1.698;2023-04-06T08:11:54;12.10;;;11.30;;
16862;SDS011;52193;48.216;-1.698;2023-04-06T08:14:21;11.73;;;11.02;;
16862;SDS011;52193;48.216;-1.698;2023-04-06T08:16:49;12.18;;;11.27;;
16862;SDS011;52193;48.216;-1.698;2023-04-06T08:19:16;11.32;;;10.73;;
16862;SDS011;52193;48.216;-1.698;2023-04-06T08:21:44;10.90;;;10.30;;
16862;SDS011;52193;48.216;-1.698;2023-04-06T08:24:11;11.65;;;11.05;;
16862;SDS011;52193;48.216;-1.698;2023-04-06T08:26:38;10.82;;;10.25;;
16862;SDS011;52193;48.216;-1.698;2023-04-06T08:29:05;11.15;;;10.48;;
16862;SDS011;52193;48.216;-1.698;2023-04-06T08:31:32;11.82;;;11.00;;
16862;SDS011;52193;48.216;-1.698;2023-04-06T08:34:01;9.98;;;9.48;;
16862;SDS011;52193;48.216;-1.698;2023-04-06T08:36:29;10.65;;;10.05;;
16862;SDS011;52193;48.216;-1.698;2023-04-06T08:38:56;11.02;;;10.40;;
16862;SDS011;52193;48.216;-1.698;2023-04-06T08:41:23;10.88;;;10.30;;
16862;SDS011;52193;48.216;-1.698;2023-04-06T08:43:52;10.80;;;10.27;;
16862;SDS011;52193;48.216;-1.698;2023-04-06T08:46:23;10.73;;;10.13;;
16862;SDS011;52193;48.216;-1.698;2023-04-06T08:48:54;11.00;;;10.40;;
16862;SDS011;52193;48.216;-1.698;2023-04-06T08:51:24;11.43;;;10.73;;
16862;SDS011;52193;48.216;-1.698;2023-04-06T08:53:52;10.48;;;9.88;;
16862;SDS011;52193;48.216;-1.698;2023-04-06T08:56:20;9.95;;;9.45;;
16862;SDS011;52193;48.216;-1.698;2023-04-06T08:58:49;10.45;;;9.95;;
16862;SDS011;52193;48.216;-1.698;2023-04-06T09:01:17;11.40;;;10.80;;
16862;SDS011;52193;48.216;-1.698;2023-04-06T09:03:48;9.93;;;9.48;;
16862;SDS011;52193;48.216;-1.698;2023-04-06T09:06:16;10.63;;;10.13;;
16862;SDS011;52193;48.216;-1.698;2023-04-06T09:08:45;10.02;;;9.43;;
16862;SDS011;52193;48.216;-1.698;2023-04-06T09:11:12;11.43;;;10.90;;
16862;SDS011;52193;48.216;-1.698;2023-04-06T09:13:46;11.15;;;10.65;;
16862;SDS011;52193;48.216;-1.698;2023-04-06T09:16:13;11.93;;;11.32;;
16862;SDS011;52193;48.216;-1.698;2023-04-06T09:18:41;13.13;;;12.10;;
16862;SDS011;52193;48.216;-1.698;2023-04-06T09:21:09;12.43;;;11.82;;
16862;SDS011;52193;48.216;-1.698;2023-04-06T09:23:36;13.10;;;12.40;;
16862;SDS011;52193;48.216;-1.698;2023-04-06T09:26:10;14.23;;;13.60;;
16862;SDS011;52193;48.216;-1.698;2023-04-06T09:28:41;14.95;;;14.18;;
16862;SDS011;52193;48.216;-1.698;2023-04-06T09:31:10;13.88;;;13.27;;
16862;SDS011;52193;48.216;-1.698;2023-04-06T09:33:38;14.98;;;14.27;;
16862;SDS011;52193;48.216;-1.698;2023-04-06T09:36:06;16.25;;;15.35;;
16862;SDS011;52193;48.216;-1.698;2023-04-06T09:38:35;15.88;;;15.18;;
16862;SDS011;52193;48.216;-1.698;2023-04-06T09:41:03;14.63;;;14.02;;
16862;SDS011;52193;48.216;-1.698;2023-04-06T09:43:32;14.30;;;13.60;;
16862;SDS011;52193;48.216;-1.698;2023-04-06T09:46:00;13.57;;;13.05;;
16862;SDS011;52193;48.216;-1.698;2023-04-06T09:48:29;13.15;;;12.65;;
16862;SDS011;52193;48.216;-1.698;2023-04-06T09:51:02;13.20;;;12.70;;
16862;SDS011;52193;48.216;-1.698;2023-04-06T09:53:30;13.40;;;12.80;;
16862;SDS011;52193;48.216;-1.698;2023-04-06T09:56:02;12.73;;;12.15;;
16862;SDS011;52193;48.216;-1.698;2023-04-06T09:58:36;12.20;;;11.70;;
16862;SDS011;52193;48.216;-1.698;2023-04-06T10:01:06;11.52;;;11.02;;
16862;SDS011;52193;48.216;-1.698;2023-04-06T10:03:36;10.70;;;10.27;;
16862;SDS011;52193;48.216;-1.698;2023-04-06T10:06:11;10.98;;;10.48;;
16862;SDS011;52193;48.216;-1.698;2023-04-06T10:08:41;11.73;;;11.13;;
16862;SDS011;52193;48.216;-1.698;2023-04-06T10:11:11;9.85;;;9.45;;
16862;SDS011;52193;48.216;-1.698;2023-04-06T10:13:40;9.70;;;9.20;;
16862;SDS011;52193;48.216;-1.698;2023-04-06T10:16:09;9.82;;;9.40;;
16862;SDS011;52193;48.216;-1.698;2023-04-06T10:18:36;9.10;;;8.70;;
16862;SDS011;52193;48.216;-1.698;2023-04-06T10:21:06;9.38;;;8.88;;
16862;SDS011;52193;48.216;-1.698;2023-04-06T10:23:35;8.32;;;7.88;;
16862;SDS011;52193;48.216;-1.698;2023-04-06T10:26:11;7.78;;;7.47;;
16862;SDS011;52193;48.216;-1.698;2023-04-06T10:28:41;8.02;;;7.63;;
16862;SDS011;52193;48.216;-1.698;2023-04-06T10:31:09;7.30;;;6.90;;
16862;SDS011;52193;48.216;-1.698;2023-04-06T10:33:36;6.97;;;6.57;;
16862;SDS011;52193;48.216;-1.698;2023-04-06T10:36:09;7.10;;;6.80;;
16862;SDS011;52193;48.216;-1.698;2023-04-06T10:38:37;7.13;;;6.82;;
16862;SDS011;52193;48.216;-1.698;2023-04-06T10:41:05;7.10;;;6.70;;
16862;SDS011;52193;48.216;-1.698;2023-04-06T10:43:33;4.82;;;4.53;;
16862;SDS011;52193;48.216;-1.698;2023-04-06T10:46:03;4.63;;;4.32;;
16862;SDS011;52193;48.216;-1.698;2023-04-06T10:48:37;3.85;;;3.50;;
16862;SDS011;52193;48.216;-1.698;2023-04-06T10:51:09;3.40;;;3.20;;
16862;SDS011;52193;48.216;-1.698;2023-04-06T10:53:38;3.10;;;3.00;;
16862;SDS011;52193;48.216;-1.698;2023-04-06T10:56:09;3.38;;;3.15;;
16862;SDS011;52193;48.216;-1.698;2023-04-06T10:58:37;3.45;;;3.15;;
16862;SDS011;52193;48.216;-1.698;2023-04-06T11:01:05;3.20;;;3.00;;
16862;SDS011;52193;48.216;-1.698;2023-04-06T11:03:41;2.95;;;2.58;;
16862;SDS011;52193;48.216;-1.698;2023-04-06T11:06:09;2.90;;;2.70;;
16862;SDS011;52193;48.216;-1.698;2023-04-06T11:08:37;3.10;;;2.90;;
16862;SDS011;52193;48.216;-1.698;2023-04-06T11:11:05;3.85;;;3.55;;
16862;SDS011;52193;48.216;-1.698;2023-04-06T11:13:37;5.20;;;4.80;;
16862;SDS011;52193;48.216;-1.698;2023-04-06T11:16:07;4.47;;;4.05;;
16862;SDS011;52193;48.216;-1.698;2023-04-06T11:18:38;4.45;;;4.15;;
16862;SDS011;52193;48.216;-1.698;2023-04-06T11:21:12;3.78;;;3.58;;
16862;SDS011;52193;48.216;-1.698;2023-04-06T11:23:39;3.78;;;3.47;;
16862;SDS011;52193;48.216;-1.698;2023-04-06T11:26:09;6.00;;;3.25;;
16862;SDS011;52193;48.216;-1.698;2023-04-06T11:28:37;3.17;;;2.97;;
16862;SDS011;52193;48.216;-1.698;2023-04-06T11:31:04;3.45;;;3.15;;
16862;SDS011;52193;48.216;-1.698;2023-04-06T11:33:36;3.90;;;3.60;;
16862;SDS011;52193;48.216;-1.698;2023-04-06T11:36:04;3.10;;;2.80;;
16862;SDS011;52193;48.216;-1.698;2023-04-06T11:38:32;3.03;;;2.83;;
16862;SDS011;52193;48.216;-1.698;2023-04-06T11:40:59;2.90;;;2.70;;
16862;SDS011;52193;48.216;-1.698;2023-04-06T11:43:27;2.65;;;2.45;;
16862;SDS011;52193;48.216;-1.698;2023-04-06T11:45:59;2.00;;;1.90;;
16862;SDS011;52193;48.216;-1.698;2023-04-06T11:48:28;2.10;;;2.00;;
16862;SDS011;52193;48.216;-1.698;2023-04-06T11:50:56;2.17;;;2.00;;
16862;SDS011;52193;48.216;-1.698;2023-04-06T11:53:25;1.88;;;1.77;;
16862;SDS011;52193;48.216;-1.698;2023-04-06T11:55:53;2.03;;;1.92;;
16862;SDS011;52193;48.216;-1.698;2023-04-06T11:58:20;2.28;;;1.88;;
16862;SDS011;52193;48.216;-1.698;2023-04-06T12:00:47;2.08;;;1.90;;
16862;SDS011;52193;48.216;-1.698;2023-04-06T12:03:14;2.03;;;1.77;;
16862;SDS011;52193;48.216;-1.698;2023-04-06T12:05:43;1.80;;;1.70;;
16862;SDS011;52193;48.216;-1.698;2023-04-06T12:08:10;1.80;;;1.70;;
16862;SDS011;52193;48.216;-1.698;2023-04-06T12:10:37;2.67;;;1.70;;
16862;SDS011;52193;48.216;-1.698;2023-04-06T12:13:04;1.60;;;1.50;;
16862;SDS011;52193;48.216;-1.698;2023-04-06T12:15:31;2.13;;;1.48;;
16862;SDS011;52193;48.216;-1.698;2023-04-06T12:17:58;2.38;;;1.92;;
16862;SDS011;52193;48.216;-1.698;2023-04-06T12:20:25;1.85;;;1.73;;
16862;SDS011;52193;48.216;-1.698;2023-04-06T12:22:53;1.85;;;1.70;;
16862;SDS011;52193;48.216;-1.698;2023-04-06T12:25:20;2.70;;;1.90;;
16862;SDS011;52193;48.216;-1.698;2023-04-06T12:27:47;2.35;;;1.90;;
16862;SDS011;52193;48.216;-1.698;2023-04-06T12:30:15;2.88;;;2.38;;
16862;SDS011;52193;48.216;-1.698;2023-04-06T12:32:42;5.38;;;2.58;;
16862;SDS011;52193;48.216;-1.698;2023-04-06T12:35:09;2.45;;;2.25;;
16862;SDS011;52193;48.216;-1.698;2023-04-06T12:37:38;5.05;;;2.00;;
16862;SDS011;52193;48.216;-1.698;2023-04-06T12:40:07;2.65;;;1.70;;
16862;SDS011;52193;48.216;-1.698;2023-04-06T12:42:36;2.42;;;1.90;;
16862;SDS011;52193;48.216;-1.698;2023-04-06T12:45:06;2.33;;;1.60;;
16862;SDS011;52193;48.216;-1.698;2023-04-06T12:47:33;1.95;;;1.50;;
16862;SDS011;52193;48.216;-1.698;2023-04-06T12:50:02;2.20;;;1.20;;
16862;SDS011;52193;48.216;-1.698;2023-04-06T12:52:30;1.67;;;1.30;;
16862;SDS011;52193;48.216;-1.698;2023-04-06T12:55:00;2.38;;;1.23;;
16862;SDS011;52193;48.216;-1.698;2023-04-06T12:57:29;0.95;;;0.85;;
16862;SDS011;52193;48.216;-1.698;2023-04-06T12:59:56;2.23;;;1.43;;
16862;SDS011;52193;48.216;-1.698;2023-04-06T13:02:23;1.42;;;1.30;;
16862;SDS011;52193;48.216;-1.698;2023-04-06T13:04:51;2.17;;;1.40;;
16862;SDS011;52193;48.216;-1.698;2023-04-06T13:07:18;1.43;;;1.20;;
16862;SDS011;52193;48.216;-1.698;2023-04-06T13:09:45;1.77;;;1.40;;
16862;SDS011;52193;48.216;-1.698;2023-04-06T13:12:14;2.38;;;1.60;;
16862;SDS011;52193;48.216;-1.698;2023-04-06T13:14:42;2.55;;;1.50;;
16862;SDS011;52193;48.216;-1.698;2023-04-06T13:17:11;1.80;;;1.40;;
16862;SDS011;52193;48.216;-1.698;2023-04-06T13:19:38;1.80;;;1.40;;
16862;SDS011;52193;48.216;-1.698;2023-04-06T13:22:05;1.98;;;1.40;;
16862;SDS011;52193;48.216;-1.698;2023-04-06T13:24:32;1.65;;;1.30;;
16862;SDS011;52193;48.216;-1.698;2023-04-06T13:26:59;2.47;;;2.00;;
16862;SDS011;52193;48.216;-1.698;2023-04-06T13:29:27;3.45;;;3.15;;
16862;SDS011;52193;48.216;-1.698;2023-04-06T13:31:55;4.65;;;2.78;;
16862;SDS011;52193;48.216;-1.698;2023-04-06T13:34:22;2.80;;;2.20;;
16862;SDS011;52193;48.216;-1.698;2023-04-06T13:36:49;3.28;;;2.20;;
16862;SDS011;52193;48.216;-1.698;2023-04-06T13:39:16;3.85;;;2.80;;
16862;SDS011;52193;48.216;-1.698;2023-04-06T13:41:43;3.25;;;2.25;;
16862;SDS011;52193;48.216;-1.698;2023-04-06T13:44:11;3.20;;;2.13;;
16862;SDS011;52193;48.216;-1.698;2023-04-06T13:46:38;3.88;;;1.92;;
16862;SDS011;52193;48.216;-1.698;2023-04-06T13:49:06;2.92;;;1.88;;
16862;SDS011;52193;48.216;-1.698;2023-04-06T13:51:33;5.45;;;2.00;;
16862;SDS011;52193;48.216;-1.698;2023-04-06T13:54:00;3.03;;;1.98;;
16862;SDS011;52193;48.216;-1.698;2023-04-06T13:56:27;3.70;;;1.90;;
16862;SDS011;52193;48.216;-1.698;2023-04-06T13:58:56;3.25;;;1.67;;
16862;SDS011;52193;48.216;-1.698;2023-04-06T14:01:23;4.22;;;2.00;;
16862;SDS011;52193;48.216;-1.698;2023-04-06T14:03:51;2.67;;;1.42;;
16862;SDS011;52193;48.216;-1.698;2023-04-06T14:06:20;3.83;;;1.83;;
16862;SDS011;52193;48.216;-1.698;2023-04-06T14:08:47;2.42;;;1.35;;
16862;SDS011;52193;48.216;-1.698;2023-04-06T14:11:13;3.45;;;1.80;;
16862;SDS011;52193;48.216;-1.698;2023-04-06T14:13:41;4.22;;;1.67;;
16862;SDS011;52193;48.216;-1.698;2023-04-06T14:16:08;2.13;;;1.45;;
16862;SDS011;52193;48.216;-1.698;2023-04-06T14:18:36;4.03;;;1.90;;
16862;SDS011;52193;48.216;-1.698;2023-04-06T14:21:03;2.20;;;1.70;;
16862;SDS011;52193;48.216;-1.698;2023-04-06T14:23:31;2.70;;;1.65;;
16862;SDS011;52193;48.216;-1.698;2023-04-06T14:26:02;1.98;;;1.67;;